sensor_id;sensor_type;location;lat;lon;timestamp;P1;durP1;ratioP1;P2;durP2;ratioP2
8474;SDS011;4274;52.012;8.448;2023-05-27T00:01:16;57.10;;;6.30;;
8474;SDS011;4274;52.012;8.448;2023-05-27T00:03:43;53.80;;;6.60;;
8474;SDS011;4274;52.012;8.448;2023-05-27T00:06:09;65.00;;;7.70;;
8474;SDS011;4274;52.012;8.448;2023-05-27T00:08:35;67.27;;;6.90;;
8474;SDS011;4274;52.012;8.448;2023-05-27T00:11:01;62.57;;;7.00;;
8474;SDS011;4274;52.012;8.448;2023-05-27T00:13:26;60.47;;;6.70;;
8474;SDS011;4274;52.012;8.448;2023-05-27T00:15:52;58.43;;;7.10;;
8474;SDS011;4274;52.012;8.448;2023-05-27T00:18:17;55.87;;;6.20;;
8474;SDS011;4274;52.012;8.448;2023-05-27T00:20:43;63.07;;;6.90;;
8474;SDS011;4274;52.012;8.448;2023-05-27T00:23:08;63.77;;;7.43;;
8474;SDS011;4274;52.012;8.448;2023-05-27T00:25:34;54.50;;;5.90;;
8474;SDS011;4274;52.012;8.448;2023-05-27T00:28:01;61.70;;;6.90;;
8474;SDS011;4274;52.012;8.448;2023-05-27T00:30:26;57.27;;;8.60;;
8474;SDS011;4274;52.012;8.448;2023-05-27T00:32:52;61.53;;;6.90;;
8474;SDS011;4274;52.012;8.448;2023-05-27T00:35:17;62.53;;;9.30;;
8474;SDS011;4274;52.012;8.448;2023-05-27T00:37:43;55.93;;;6.60;;
8474;SDS011;4274;52.012;8.448;2023-05-27T00:40:09;57.77;;;8.23;;
8474;SDS011;4274;52.012;8.448;2023-05-27T00:42:36;62.13;;;7.03;;
8474;SDS011;4274;52.012;8.448;2023-05-27T00:45:02;59.10;;;6.97;;
8474;SDS011;4274;52.012;8.448;2023-05-27T00:47:29;51.73;;;7.30;;
8474;SDS011;4274;52.012;8.448;2023-05-27T00:49:56;69.37;;;9.20;;
8474;SDS011;4274;52.012;8.448;2023-05-27T00:52:22;65.53;;;8.80;;
8474;SDS011;4274;52.012;8.448;2023-05-27T00:54:48;61.90;;;6.80;;
8474;SDS011;4274;52.012;8.448;2023-05-27T00:57:15;61.03;;;6.90;;
8474;SDS011;4274;52.012;8.448;2023-05-27T00:59:41;59.70;;;7.30;;
8474;SDS011;4274;52.012;8.448;2023-05-27T01:02:06;57.00;;;7.10;;
8474;SDS011;4274;52.012;8.448;2023-05-27T01:04:32;57.50;;;7.40;;
8474;SDS011;4274;52.012;8.448;2023-05-27T01:07:06;58.77;;;7.40;;
8474;SDS011;4274;52.012;8.448;2023-05-27T01:14:48;63.80;;;7.77;;
8474;SDS011;4274;52.012;8.448;2023-05-27T01:17:16;55.33;;;7.13;;
8474;SDS011;4274;52.012;8.448;2023-05-27T01:19:44;57.67;;;7.70;;
8474;SDS011;4274;52.012;8.448;2023-05-27T01:22:13;67.50;;;7.60;;
8474;SDS011;4274;52.012;8.448;2023-05-27T01:24:40;58.07;;;6.90;;
8474;SDS011;4274;52.012;8.448;2023-05-27T01:27:09;68.63;;;7.50;;
8474;SDS011;4274;52.012;8.448;2023-05-27T01:29:40;56.30;;;6.77;;
8474;SDS011;4274;52.012;8.448;2023-05-27T01:32:21;66.73;;;7.73;;
8474;SDS011;4274;52.012;8.448;2023-05-27T01:37:37;66.73;;;8.03;;
8474;SDS011;4274;52.012;8.448;2023-05-27T01:40:05;58.93;;;7.03;;
8474;SDS011;4274;52.012;8.448;2023-05-27T01:42:36;64.30;;;7.97;;
8474;SDS011;4274;52.012;8.448;2023-05-27T01:45:05;68.13;;;8.10;;
8474;SDS011;4274;52.012;8.448;2023-05-27T01:47:32;58.13;;;8.03;;
8474;SDS011;4274;52.012;8.448;2023-05-27T01:49:58;56.03;;;7.60;;
8474;SDS011;4274;52.012;8.448;2023-05-27T01:52:23;63.73;;;7.80;;
8474;SDS011;4274;52.012;8.448;2023-05-27T01:54:50;62.33;;;7.30;;
8474;SDS011;4274;52.012;8.448;2023-05-27T01:57:15;70.70;;;7.23;;
8474;SDS011;4274;52.012;8.448;2023-05-27T01:59:41;77.93;;;7.07;;
8474;SDS011;4274;52.012;8.448;2023-05-27T02:02:07;62.57;;;6.57;;
8474;SDS011;4274;52.012;8.448;2023-05-27T02:04:33;60.23;;;7.03;;
8474;SDS011;4274;52.012;8.448;2023-05-27T02:06:59;57.20;;;7.10;;
8474;SDS011;4274;52.012;8.448;2023-05-27T02:09:25;51.50;;;6.40;;
8474;SDS011;4274;52.012;8.448;2023-05-27T02:11:50;61.60;;;7.90;;
8474;SDS011;4274;52.012;8.448;2023-05-27T02:14:16;62.87;;;7.20;;
8474;SDS011;4274;52.012;8.448;2023-05-27T02:16:42;62.97;;;7.77;;
8474;SDS011;4274;52.012;8.448;2023-05-27T02:19:08;62.90;;;7.50;;
8474;SDS011;4274;52.012;8.448;2023-05-27T02:21:34;57.80;;;6.80;;
8474;SDS011;4274;52.012;8.448;2023-05-27T02:24:00;56.73;;;7.70;;
8474;SDS011;4274;52.012;8.448;2023-05-27T02:26:27;60.80;;;8.03;;
8474;SDS011;4274;52.012;8.448;2023-05-27T02:28:53;62.50;;;7.97;;
8474;SDS011;4274;52.012;8.448;2023-05-27T02:31:19;70.70;;;8.23;;
8474;SDS011;4274;52.012;8.448;2023-05-27T02:33:45;62.03;;;7.90;;
8474;SDS011;4274;52.012;8.448;2023-05-27T02:36:11;55.70;;;6.87;;
8474;SDS011;4274;52.012;8.448;2023-05-27T02:38:37;60.30;;;7.60;;
8474;SDS011;4274;52.012;8.448;2023-05-27T02:41:03;67.90;;;7.40;;
8474;SDS011;4274;52.012;8.448;2023-05-27T02:43:28;55.73;;;7.47;;
8474;SDS011;4274;52.012;8.448;2023-05-27T02:45:54;67.80;;;7.43;;
8474;SDS011;4274;52.012;8.448;2023-05-27T02:48:19;75.60;;;7.80;;
8474;SDS011;4274;52.012;8.448;2023-05-27T02:50:45;68.40;;;7.87;;
8474;SDS011;4274;52.012;8.448;2023-05-27T02:53:11;60.53;;;7.80;;
8474;SDS011;4274;52.012;8.448;2023-05-27T02:55:36;57.80;;;8.30;;
8474;SDS011;4274;52.012;8.448;2023-05-27T02:58:02;69.87;;;9.03;;
8474;SDS011;4274;52.012;8.448;2023-05-27T03:00:29;54.80;;;6.60;;
8474;SDS011;4274;52.012;8.448;2023-05-27T03:02:55;56.70;;;7.60;;
8474;SDS011;4274;52.012;8.448;2023-05-27T03:05:21;54.70;;;8.00;;
8474;SDS011;4274;52.012;8.448;2023-05-27T03:07:47;54.53;;;7.00;;
8474;SDS011;4274;52.012;8.448;2023-05-27T03:10:12;68.97;;;8.87;;
8474;SDS011;4274;52.012;8.448;2023-05-27T03:12:38;63.17;;;8.97;;
8474;SDS011;4274;52.012;8.448;2023-05-27T03:15:03;60.00;;;7.20;;
8474;SDS011;4274;52.012;8.448;2023-05-27T03:17:29;58.30;;;7.97;;
8474;SDS011;4274;52.012;8.448;2023-05-27T03:19:55;60.73;;;7.47;;
8474;SDS011;4274;52.012;8.448;2023-05-27T03:22:21;66.43;;;7.07;;
8474;SDS011;4274;52.012;8.448;2023-05-27T03:24:46;69.00;;;8.37;;
8474;SDS011;4274;52.012;8.448;2023-05-27T03:27:12;63.57;;;7.97;;
8474;SDS011;4274;52.012;8.448;2023-05-27T03:29:37;62.40;;;8.10;;
8474;SDS011;4274;52.012;8.448;2023-05-27T03:32:03;63.77;;;7.73;;
8474;SDS011;4274;52.012;8.448;2023-05-27T03:34:29;61.03;;;7.10;;
8474;SDS011;4274;52.012;8.448;2023-05-27T03:36:55;62.17;;;8.07;;
8474;SDS011;4274;52.012;8.448;2023-05-27T03:39:20;67.40;;;8.00;;
8474;SDS011;4274;52.012;8.448;2023-05-27T03:41:46;59.40;;;7.30;;
8474;SDS011;4274;52.012;8.448;2023-05-27T03:44:12;54.60;;;7.90;;
8474;SDS011;4274;52.012;8.448;2023-05-27T03:46:38;66.00;;;7.40;;
8474;SDS011;4274;52.012;8.448;2023-05-27T03:49:03;57.10;;;8.10;;
8474;SDS011;4274;52.012;8.448;2023-05-27T03:51:29;56.70;;;7.30;;
8474;SDS011;4274;52.012;8.448;2023-05-27T03:53:54;57.70;;;8.47;;
8474;SDS011;4274;52.012;8.448;2023-05-27T03:56:20;65.33;;;9.80;;
8474;SDS011;4274;52.012;8.448;2023-05-27T03:58:45;66.67;;;8.23;;
8474;SDS011;4274;52.012;8.448;2023-05-27T04:01:11;66.27;;;7.53;;
8474;SDS011;4274;52.012;8.448;2023-05-27T04:03:37;56.00;;;7.33;;
8474;SDS011;4274;52.012;8.448;2023-05-27T04:06:05;58.77;;;7.83;;
8474;SDS011;4274;52.012;8.448;2023-05-27T04:08:31;60.00;;;7.20;;
8474;SDS011;4274;52.012;8.448;2023-05-27T04:10:56;57.23;;;7.33;;
8474;SDS011;4274;52.012;8.448;2023-05-27T04:13:22;75.97;;;8.47;;
8474;SDS011;4274;52.012;8.448;2023-05-27T04:15:48;58.40;;;7.10;;
8474;SDS011;4274;52.012;8.448;2023-05-27T04:18:13;59.83;;;7.57;;
8474;SDS011;4274;52.012;8.448;2023-05-27T04:20:39;57.60;;;7.70;;
8474;SDS011;4274;52.012;8.448;2023-05-27T04:23:07;66.63;;;8.60;;
8474;SDS011;4274;52.012;8.448;2023-05-27T04:25:34;58.30;;;8.13;;
8474;SDS011;4274;52.012;8.448;2023-05-27T04:28:00;71.73;;;8.53;;
8474;SDS011;4274;52.012;8.448;2023-05-27T04:30:29;59.00;;;7.20;;
8474;SDS011;4274;52.012;8.448;2023-05-27T04:32:55;56.40;;;7.37;;
8474;SDS011;4274;52.012;8.448;2023-05-27T04:35:20;59.77;;;7.00;;
8474;SDS011;4274;52.012;8.448;2023-05-27T04:37:46;60.23;;;7.97;;
8474;SDS011;4274;52.012;8.448;2023-05-27T04:40:12;61.97;;;7.37;;
8474;SDS011;4274;52.012;8.448;2023-05-27T04:42:39;59.93;;;8.23;;
8474;SDS011;4274;52.012;8.448;2023-05-27T04:45:04;59.50;;;7.67;;
8474;SDS011;4274;52.012;8.448;2023-05-27T04:47:32;61.87;;;7.03;;
8474;SDS011;4274;52.012;8.448;2023-05-27T04:49:58;61.47;;;7.63;;
8474;SDS011;4274;52.012;8.448;2023-05-27T04:52:25;61.63;;;7.87;;
8474;SDS011;4274;52.012;8.448;2023-05-27T04:54:52;60.60;;;8.17;;
8474;SDS011;4274;52.012;8.448;2023-05-27T04:57:19;53.63;;;6.50;;
8474;SDS011;4274;52.012;8.448;2023-05-27T04:59:45;58.93;;;7.57;;
8474;SDS011;4274;52.012;8.448;2023-05-27T05:02:25;60.33;;;7.13;;
8474;SDS011;4274;52.012;8.448;2023-05-27T05:04:59;66.37;;;7.70;;
8474;SDS011;4274;52.012;8.448;2023-05-27T05:07:28;55.40;;;6.80;;
8474;SDS011;4274;52.012;8.448;2023-05-27T05:09:54;64.33;;;7.50;;
8474;SDS011;4274;52.012;8.448;2023-05-27T05:12:19;52.40;;;6.30;;
8474;SDS011;4274;52.012;8.448;2023-05-27T05:14:45;64.07;;;6.87;;
8474;SDS011;4274;52.012;8.448;2023-05-27T05:17:11;62.17;;;7.53;;
8474;SDS011;4274;52.012;8.448;2023-05-27T05:19:36;56.60;;;6.33;;
8474;SDS011;4274;52.012;8.448;2023-05-27T05:22:02;60.63;;;7.37;;
8474;SDS011;4274;52.012;8.448;2023-05-27T05:24:27;53.27;;;6.27;;
8474;SDS011;4274;52.012;8.448;2023-05-27T05:26:53;59.87;;;6.73;;
8474;SDS011;4274;52.012;8.448;2023-05-27T05:29:18;54.10;;;7.07;;
8474;SDS011;4274;52.012;8.448;2023-05-27T05:31:44;65.80;;;6.70;;
8474;SDS011;4274;52.012;8.448;2023-05-27T05:34:10;56.90;;;6.60;;
8474;SDS011;4274;52.012;8.448;2023-05-27T05:36:36;54.93;;;6.57;;
8474;SDS011;4274;52.012;8.448;2023-05-27T05:39:02;59.17;;;6.60;;
8474;SDS011;4274;52.012;8.448;2023-05-27T05:41:28;54.63;;;6.67;;
8474;SDS011;4274;52.012;8.448;2023-05-27T05:43:54;55.90;;;5.80;;
8474;SDS011;4274;52.012;8.448;2023-05-27T05:46:20;56.17;;;7.07;;
8474;SDS011;4274;52.012;8.448;2023-05-27T05:48:45;57.17;;;6.37;;
8474;SDS011;4274;52.012;8.448;2023-05-27T05:51:11;63.60;;;7.57;;
8474;SDS011;4274;52.012;8.448;2023-05-27T05:53:37;64.87;;;6.57;;
8474;SDS011;4274;52.012;8.448;2023-05-27T05:56:02;64.50;;;6.83;;
8474;SDS011;4274;52.012;8.448;2023-05-27T05:58:28;61.50;;;6.40;;
8474;SDS011;4274;52.012;8.448;2023-05-27T06:00:54;54.67;;;6.00;;
8474;SDS011;4274;52.012;8.448;2023-05-27T06:03:19;63.67;;;6.57;;
8474;SDS011;4274;52.012;8.448;2023-05-27T06:05:45;54.60;;;5.60;;
8474;SDS011;4274;52.012;8.448;2023-05-27T06:08:10;59.50;;;6.43;;
8474;SDS011;4274;52.012;8.448;2023-05-27T06:10:36;58.40;;;5.73;;
8474;SDS011;4274;52.012;8.448;2023-05-27T06:13:02;59.80;;;6.90;;
8474;SDS011;4274;52.012;8.448;2023-05-27T06:15:28;67.53;;;5.23;;
8474;SDS011;4274;52.012;8.448;2023-05-27T06:17:55;59.50;;;6.27;;
8474;SDS011;4274;52.012;8.448;2023-05-27T06:20:21;56.13;;;6.20;;
8474;SDS011;4274;52.012;8.448;2023-05-27T06:22:47;60.67;;;6.30;;
8474;SDS011;4274;52.012;8.448;2023-05-27T06:25:13;63.00;;;8.17;;
8474;SDS011;4274;52.012;8.448;2023-05-27T06:27:38;51.80;;;5.87;;
8474;SDS011;4274;52.012;8.448;2023-05-27T06:30:04;54.50;;;6.20;;
8474;SDS011;4274;52.012;8.448;2023-05-27T06:32:31;62.97;;;6.00;;
8474;SDS011;4274;52.012;8.448;2023-05-27T06:34:56;65.70;;;7.20;;
8474;SDS011;4274;52.012;8.448;2023-05-27T06:37:22;54.10;;;6.70;;
8474;SDS011;4274;52.012;8.448;2023-05-27T06:39:47;54.40;;;5.67;;
8474;SDS011;4274;52.012;8.448;2023-05-27T06:42:13;63.47;;;7.00;;
8474;SDS011;4274;52.012;8.448;2023-05-27T06:44:39;62.97;;;6.30;;
8474;SDS011;4274;52.012;8.448;2023-05-27T06:47:05;57.63;;;6.20;;
8474;SDS011;4274;52.012;8.448;2023-05-27T06:49:31;56.60;;;6.40;;
8474;SDS011;4274;52.012;8.448;2023-05-27T06:51:56;57.77;;;6.50;;
8474;SDS011;4274;52.012;8.448;2023-05-27T06:54:22;59.03;;;5.90;;
8474;SDS011;4274;52.012;8.448;2023-05-27T06:56:47;68.33;;;7.27;;
8474;SDS011;4274;52.012;8.448;2023-05-27T06:59:13;61.77;;;6.47;;
8474;SDS011;4274;52.012;8.448;2023-05-27T07:01:38;62.37;;;6.80;;
8474;SDS011;4274;52.012;8.448;2023-05-27T07:04:04;59.37;;;5.53;;
8474;SDS011;4274;52.012;8.448;2023-05-27T07:06:30;54.93;;;5.80;;
8474;SDS011;4274;52.012;8.448;2023-05-27T07:08:56;58.43;;;5.80;;
8474;SDS011;4274;52.012;8.448;2023-05-27T07:11:22;56.70;;;6.50;;
8474;SDS011;4274;52.012;8.448;2023-05-27T07:13:48;58.27;;;6.33;;
8474;SDS011;4274;52.012;8.448;2023-05-27T07:16:13;58.23;;;6.30;;
8474;SDS011;4274;52.012;8.448;2023-05-27T07:18:40;61.17;;;6.40;;
8474;SDS011;4274;52.012;8.448;2023-05-27T07:21:06;57.00;;;5.60;;
8474;SDS011;4274;52.012;8.448;2023-05-27T07:23:31;54.43;;;6.33;;
8474;SDS011;4274;52.012;8.448;2023-05-27T07:25:57;65.30;;;6.87;;
8474;SDS011;4274;52.012;8.448;2023-05-27T07:28:22;65.70;;;6.33;;
8474;SDS011;4274;52.012;8.448;2023-05-27T07:30:48;58.07;;;5.73;;
8474;SDS011;4274;52.012;8.448;2023-05-27T07:33:14;62.23;;;6.07;;
8474;SDS011;4274;52.012;8.448;2023-05-27T07:35:39;68.07;;;8.80;;
8474;SDS011;4274;52.012;8.448;2023-05-27T07:38:05;61.40;;;5.93;;
8474;SDS011;4274;52.012;8.448;2023-05-27T07:40:31;52.63;;;5.93;;
8474;SDS011;4274;52.012;8.448;2023-05-27T07:42:56;64.33;;;6.37;;
8474;SDS011;4274;52.012;8.448;2023-05-27T07:45:22;58.73;;;5.50;;
8474;SDS011;4274;52.012;8.448;2023-05-27T07:47:48;57.70;;;6.00;;
8474;SDS011;4274;52.012;8.448;2023-05-27T07:50:13;56.77;;;6.90;;
8474;SDS011;4274;52.012;8.448;2023-05-27T07:52:40;63.00;;;5.97;;
8474;SDS011;4274;52.012;8.448;2023-05-27T07:55:06;64.40;;;6.13;;
8474;SDS011;4274;52.012;8.448;2023-05-27T07:57:32;59.93;;;5.90;;
8474;SDS011;4274;52.012;8.448;2023-05-27T07:59:58;59.97;;;6.53;;
8474;SDS011;4274;52.012;8.448;2023-05-27T08:02:23;55.37;;;5.50;;
8474;SDS011;4274;52.012;8.448;2023-05-27T08:04:50;62.10;;;5.83;;
8474;SDS011;4274;52.012;8.448;2023-05-27T08:07:16;60.97;;;5.23;;
8474;SDS011;4274;52.012;8.448;2023-05-27T08:09:42;57.10;;;5.33;;
8474;SDS011;4274;52.012;8.448;2023-05-27T08:12:08;57.30;;;5.57;;
8474;SDS011;4274;52.012;8.448;2023-05-27T08:14:34;56.38;;;5.10;;
8474;SDS011;4274;52.012;8.448;2023-05-27T08:16:59;54.57;;;5.13;;
8474;SDS011;4274;52.012;8.448;2023-05-27T08:19:25;57.03;;;5.80;;
8474;SDS011;4274;52.012;8.448;2023-05-27T08:21:52;58.60;;;5.90;;
8474;SDS011;4274;52.012;8.448;2023-05-27T08:24:17;57.03;;;5.67;;
8474;SDS011;4274;52.012;8.448;2023-05-27T08:26:46;63.00;;;5.53;;
8474;SDS011;4274;52.012;8.448;2023-05-27T08:29:12;52.70;;;4.77;;
8474;SDS011;4274;52.012;8.448;2023-05-27T08:31:38;52.77;;;5.27;;
8474;SDS011;4274;52.012;8.448;2023-05-27T08:34:05;54.73;;;5.30;;
8474;SDS011;4274;52.012;8.448;2023-05-27T08:36:31;58.43;;;6.30;;
8474;SDS011;4274;52.012;8.448;2023-05-27T08:38:56;52.40;;;4.83;;
8474;SDS011;4274;52.012;8.448;2023-05-27T08:41:22;55.30;;;5.50;;
8474;SDS011;4274;52.012;8.448;2023-05-27T08:43:48;58.00;;;5.07;;
8474;SDS011;4274;52.012;8.448;2023-05-27T08:46:15;54.43;;;5.07;;
8474;SDS011;4274;52.012;8.448;2023-05-27T08:48:41;53.80;;;4.67;;
8474;SDS011;4274;52.012;8.448;2023-05-27T08:51:06;59.17;;;5.20;;
8474;SDS011;4274;52.012;8.448;2023-05-27T08:53:34;51.03;;;4.80;;
8474;SDS011;4274;52.012;8.448;2023-05-27T08:56:00;56.27;;;5.07;;
8474;SDS011;4274;52.012;8.448;2023-05-27T08:58:27;57.53;;;4.80;;
8474;SDS011;4274;52.012;8.448;2023-05-27T09:00:53;56.47;;;5.03;;
8474;SDS011;4274;52.012;8.448;2023-05-27T09:03:19;52.63;;;4.60;;
8474;SDS011;4274;52.012;8.448;2023-05-27T09:05:46;54.50;;;4.50;;
8474;SDS011;4274;52.012;8.448;2023-05-27T09:08:12;57.10;;;5.57;;
8474;SDS011;4274;52.012;8.448;2023-05-27T09:10:38;66.40;;;5.23;;
8474;SDS011;4274;52.012;8.448;2023-05-27T09:13:04;51.97;;;4.33;;
8474;SDS011;4274;52.012;8.448;2023-05-27T09:15:31;59.73;;;4.80;;
8474;SDS011;4274;52.012;8.448;2023-05-27T09:17:57;57.87;;;5.17;;
8474;SDS011;4274;52.012;8.448;2023-05-27T09:20:26;59.00;;;5.00;;
8474;SDS011;4274;52.012;8.448;2023-05-27T09:23:00;57.47;;;5.53;;
8474;SDS011;4274;52.012;8.448;2023-05-27T09:25:28;59.57;;;5.87;;
8474;SDS011;4274;52.012;8.448;2023-05-27T09:27:54;51.27;;;4.60;;
8474;SDS011;4274;52.012;8.448;2023-05-27T09:30:21;59.73;;;5.10;;
8474;SDS011;4274;52.012;8.448;2023-05-27T09:32:48;51.80;;;4.33;;
8474;SDS011;4274;52.012;8.448;2023-05-27T09:35:15;59.13;;;4.63;;
8474;SDS011;4274;52.012;8.448;2023-05-27T09:37:41;62.03;;;4.97;;
8474;SDS011;4274;52.012;8.448;2023-05-27T09:40:08;54.40;;;5.00;;
8474;SDS011;4274;52.012;8.448;2023-05-27T09:42:39;54.60;;;5.63;;
8474;SDS011;4274;52.012;8.448;2023-05-27T09:45:06;58.27;;;4.90;;
8474;SDS011;4274;52.012;8.448;2023-05-27T09:47:35;57.30;;;4.77;;
8474;SDS011;4274;52.012;8.448;2023-05-27T09:50:04;58.50;;;5.90;;
8474;SDS011;4274;52.012;8.448;2023-05-27T09:52:30;58.60;;;5.53;;
8474;SDS011;4274;52.012;8.448;2023-05-27T09:54:57;54.77;;;4.40;;
8474;SDS011;4274;52.012;8.448;2023-05-27T09:57:23;60.47;;;6.13;;
8474;SDS011;4274;52.012;8.448;2023-05-27T09:59:49;56.53;;;4.32;;
8474;SDS011;4274;52.012;8.448;2023-05-27T10:02:17;56.27;;;5.30;;
8474;SDS011;4274;52.012;8.448;2023-05-27T10:04:45;52.60;;;4.30;;
8474;SDS011;4274;52.012;8.448;2023-05-27T10:07:13;54.67;;;5.27;;
8474;SDS011;4274;52.012;8.448;2023-05-27T10:09:41;59.73;;;5.20;;
8474;SDS011;4274;52.012;8.448;2023-05-27T10:12:07;57.17;;;5.57;;
8474;SDS011;4274;52.012;8.448;2023-05-27T10:14:34;57.67;;;5.60;;
8474;SDS011;4274;52.012;8.448;2023-05-27T10:17:00;57.67;;;5.00;;
8474;SDS011;4274;52.012;8.448;2023-05-27T10:19:25;57.63;;;5.33;;
8474;SDS011;4274;52.012;8.448;2023-05-27T10:21:52;54.00;;;5.40;;
8474;SDS011;4274;52.012;8.448;2023-05-27T10:24:18;53.40;;;4.60;;
8474;SDS011;4274;52.012;8.448;2023-05-27T10:26:45;53.13;;;5.10;;
8474;SDS011;4274;52.012;8.448;2023-05-27T10:29:16;57.47;;;5.67;;
8474;SDS011;4274;52.012;8.448;2023-05-27T10:31:48;69.63;;;5.97;;
8474;SDS011;4274;52.012;8.448;2023-05-27T10:34:13;56.27;;;5.37;;
8474;SDS011;4274;52.012;8.448;2023-05-27T10:36:39;55.93;;;5.40;;
8474;SDS011;4274;52.012;8.448;2023-05-27T10:39:11;54.03;;;5.20;;
8474;SDS011;4274;52.012;8.448;2023-05-27T10:41:39;50.83;;;4.00;;
8474;SDS011;4274;52.012;8.448;2023-05-27T10:44:08;54.47;;;4.63;;
8474;SDS011;4274;52.012;8.448;2023-05-27T10:46:41;50.57;;;3.50;;
8474;SDS011;4274;52.012;8.448;2023-05-27T10:49:09;52.60;;;4.03;;
8474;SDS011;4274;52.012;8.448;2023-05-27T10:51:47;52.33;;;4.40;;
8474;SDS011;4274;52.012;8.448;2023-05-27T10:54:14;56.77;;;5.00;;
8474;SDS011;4274;52.012;8.448;2023-05-27T10:56:49;50.33;;;4.20;;
8474;SDS011;4274;52.012;8.448;2023-05-27T10:59:20;56.93;;;4.83;;
8474;SDS011;4274;52.012;8.448;2023-05-27T11:01:47;60.03;;;4.90;;
8474;SDS011;4274;52.012;8.448;2023-05-27T11:04:17;56.47;;;5.30;;
8474;SDS011;4274;52.012;8.448;2023-05-27T11:06:43;58.27;;;5.03;;
8474;SDS011;4274;52.012;8.448;2023-05-27T11:09:27;57.03;;;5.20;;
8474;SDS011;4274;52.012;8.448;2023-05-27T11:11:56;53.83;;;4.43;;
8474;SDS011;4274;52.012;8.448;2023-05-27T11:14:25;52.10;;;4.30;;
8474;SDS011;4274;52.012;8.448;2023-05-27T11:16:50;57.80;;;4.60;;
8474;SDS011;4274;52.012;8.448;2023-05-27T11:19:17;54.80;;;5.13;;
8474;SDS011;4274;52.012;8.448;2023-05-27T11:21:47;56.47;;;6.67;;
8474;SDS011;4274;52.012;8.448;2023-05-27T11:24:19;66.30;;;9.10;;
8474;SDS011;4274;52.012;8.448;2023-05-27T11:26:45;79.13;;;14.97;;
8474;SDS011;4274;52.012;8.448;2023-05-27T11:29:15;55.17;;;4.40;;
8474;SDS011;4274;52.012;8.448;2023-05-27T11:31:41;49.73;;;3.70;;
8474;SDS011;4274;52.012;8.448;2023-05-27T11:34:14;52.77;;;5.10;;
8474;SDS011;4274;52.012;8.448;2023-05-27T11:36:41;51.87;;;4.63;;
8474;SDS011;4274;52.012;8.448;2023-05-27T11:39:14;52.37;;;4.53;;
8474;SDS011;4274;52.012;8.448;2023-05-27T11:44:16;51.47;;;3.97;;
8474;SDS011;4274;52.012;8.448;2023-05-27T11:46:43;51.57;;;4.20;;
8474;SDS011;4274;52.012;8.448;2023-05-27T11:49:10;53.77;;;3.80;;
8474;SDS011;4274;52.012;8.448;2023-05-27T11:51:38;53.40;;;4.67;;
8474;SDS011;4274;52.012;8.448;2023-05-27T11:54:17;52.60;;;4.00;;
8474;SDS011;4274;52.012;8.448;2023-05-27T11:56:49;52.43;;;3.57;;
8474;SDS011;4274;52.012;8.448;2023-05-27T11:59:16;51.10;;;3.63;;
8474;SDS011;4274;52.012;8.448;2023-05-27T12:01:42;51.00;;;3.90;;
8474;SDS011;4274;52.012;8.448;2023-05-27T12:04:08;48.63;;;3.63;;
8474;SDS011;4274;52.012;8.448;2023-05-27T12:06:34;58.27;;;4.20;;
8474;SDS011;4274;52.012;8.448;2023-05-27T12:09:02;50.87;;;3.90;;
8474;SDS011;4274;52.012;8.448;2023-05-27T12:11:28;55.07;;;4.10;;
8474;SDS011;4274;52.012;8.448;2023-05-27T12:13:54;49.37;;;3.40;;
8474;SDS011;4274;52.012;8.448;2023-05-27T12:16:19;53.90;;;4.57;;
8474;SDS011;4274;52.012;8.448;2023-05-27T12:18:45;51.00;;;3.60;;
8474;SDS011;4274;52.012;8.448;2023-05-27T12:21:11;51.30;;;3.53;;
8474;SDS011;4274;52.012;8.448;2023-05-27T12:23:37;52.97;;;3.60;;
8474;SDS011;4274;52.012;8.448;2023-05-27T12:26:03;54.57;;;3.43;;
8474;SDS011;4274;52.012;8.448;2023-05-27T12:28:28;50.60;;;3.80;;
8474;SDS011;4274;52.012;8.448;2023-05-27T12:30:55;48.27;;;3.13;;
8474;SDS011;4274;52.012;8.448;2023-05-27T12:33:20;52.83;;;3.97;;
8474;SDS011;4274;52.012;8.448;2023-05-27T12:35:46;53.73;;;4.20;;
8474;SDS011;4274;52.012;8.448;2023-05-27T12:38:11;49.20;;;3.47;;
8474;SDS011;4274;52.012;8.448;2023-05-27T12:40:37;52.30;;;3.80;;
8474;SDS011;4274;52.012;8.448;2023-05-27T12:43:03;48.10;;;3.40;;
8474;SDS011;4274;52.012;8.448;2023-05-27T12:45:29;50.20;;;3.50;;
8474;SDS011;4274;52.012;8.448;2023-05-27T12:47:58;49.03;;;3.17;;
8474;SDS011;4274;52.012;8.448;2023-05-27T12:50:24;50.23;;;3.83;;
8474;SDS011;4274;52.012;8.448;2023-05-27T12:52:49;46.80;;;2.90;;
8474;SDS011;4274;52.012;8.448;2023-05-27T12:55:16;49.47;;;4.07;;
8474;SDS011;4274;52.012;8.448;2023-05-27T12:57:43;48.90;;;3.70;;
8474;SDS011;4274;52.012;8.448;2023-05-27T13:00:10;48.40;;;3.27;;
8474;SDS011;4274;52.012;8.448;2023-05-27T13:02:37;64.63;;;3.93;;
8474;SDS011;4274;52.012;8.448;2023-05-27T13:05:03;50.30;;;3.80;;
8474;SDS011;4274;52.012;8.448;2023-05-27T13:07:31;50.43;;;3.93;;
8474;SDS011;4274;52.012;8.448;2023-05-27T13:09:59;51.33;;;3.40;;
8474;SDS011;4274;52.012;8.448;2023-05-27T13:12:29;49.47;;;3.47;;
8474;SDS011;4274;52.012;8.448;2023-05-27T13:14:57;52.73;;;3.73;;
8474;SDS011;4274;52.012;8.448;2023-05-27T13:17:23;52.63;;;3.43;;
8474;SDS011;4274;52.012;8.448;2023-05-27T13:19:48;51.70;;;3.20;;
8474;SDS011;4274;52.012;8.448;2023-05-27T13:22:14;52.73;;;4.67;;
8474;SDS011;4274;52.012;8.448;2023-05-27T13:24:40;53.10;;;3.83;;
8474;SDS011;4274;52.012;8.448;2023-05-27T13:27:06;53.50;;;4.40;;
8474;SDS011;4274;52.012;8.448;2023-05-27T13:29:33;55.80;;;3.77;;
8474;SDS011;4274;52.012;8.448;2023-05-27T13:31:59;52.10;;;3.80;;
8474;SDS011;4274;52.012;8.448;2023-05-27T13:34:24;48.43;;;3.53;;
8474;SDS011;4274;52.012;8.448;2023-05-27T13:36:52;49.07;;;3.80;;
8474;SDS011;4274;52.012;8.448;2023-05-27T13:39:17;48.73;;;3.50;;
8474;SDS011;4274;52.012;8.448;2023-05-27T13:41:43;53.57;;;4.17;;
8474;SDS011;4274;52.012;8.448;2023-05-27T13:44:08;48.77;;;3.90;;
8474;SDS011;4274;52.012;8.448;2023-05-27T13:46:34;55.80;;;4.27;;
8474;SDS011;4274;52.012;8.448;2023-05-27T13:48:59;53.50;;;4.23;;
8474;SDS011;4274;52.012;8.448;2023-05-27T13:51:25;51.47;;;3.63;;
8474;SDS011;4274;52.012;8.448;2023-05-27T13:53:51;52.67;;;4.00;;
8474;SDS011;4274;52.012;8.448;2023-05-27T13:56:16;49.53;;;3.70;;
8474;SDS011;4274;52.012;8.448;2023-05-27T13:58:42;54.10;;;4.23;;
8474;SDS011;4274;52.012;8.448;2023-05-27T14:01:07;51.60;;;4.00;;
8474;SDS011;4274;52.012;8.448;2023-05-27T14:03:33;54.00;;;4.50;;
8474;SDS011;4274;52.012;8.448;2023-05-27T14:05:58;50.30;;;4.17;;
8474;SDS011;4274;52.012;8.448;2023-05-27T14:08:24;49.23;;;3.77;;
8474;SDS011;4274;52.012;8.448;2023-05-27T14:10:50;52.17;;;3.53;;
8474;SDS011;4274;52.012;8.448;2023-05-27T14:13:15;50.50;;;4.10;;
8474;SDS011;4274;52.012;8.448;2023-05-27T14:15:41;49.10;;;3.50;;
8474;SDS011;4274;52.012;8.448;2023-05-27T14:18:06;51.77;;;4.57;;
8474;SDS011;4274;52.012;8.448;2023-05-27T14:20:33;51.80;;;3.77;;
8474;SDS011;4274;52.012;8.448;2023-05-27T14:22:58;51.80;;;4.57;;
8474;SDS011;4274;52.012;8.448;2023-05-27T14:25:27;50.77;;;4.40;;
8474;SDS011;4274;52.012;8.448;2023-05-27T14:27:52;56.10;;;4.43;;
8474;SDS011;4274;52.012;8.448;2023-05-27T14:30:18;53.80;;;3.83;;
8474;SDS011;4274;52.012;8.448;2023-05-27T14:32:43;51.57;;;4.10;;
8474;SDS011;4274;52.012;8.448;2023-05-27T14:35:10;54.40;;;4.30;;
8474;SDS011;4274;52.012;8.448;2023-05-27T14:37:36;54.08;;;3.70;;
8474;SDS011;4274;52.012;8.448;2023-05-27T14:40:01;48.87;;;3.57;;
8474;SDS011;4274;52.012;8.448;2023-05-27T14:42:27;53.50;;;5.00;;
8474;SDS011;4274;52.012;8.448;2023-05-27T14:44:53;50.50;;;4.23;;
8474;SDS011;4274;52.012;8.448;2023-05-27T14:47:19;52.37;;;4.27;;
8474;SDS011;4274;52.012;8.448;2023-05-27T14:49:46;49.83;;;4.10;;
8474;SDS011;4274;52.012;8.448;2023-05-27T14:52:12;55.20;;;4.30;;
8474;SDS011;4274;52.012;8.448;2023-05-27T14:54:37;50.53;;;4.17;;
8474;SDS011;4274;52.012;8.448;2023-05-27T14:57:03;49.37;;;4.20;;
8474;SDS011;4274;52.012;8.448;2023-05-27T14:59:29;49.53;;;3.83;;
8474;SDS011;4274;52.012;8.448;2023-05-27T15:01:54;56.93;;;4.57;;
8474;SDS011;4274;52.012;8.448;2023-05-27T15:04:20;58.83;;;4.80;;
8474;SDS011;4274;52.012;8.448;2023-05-27T15:06:45;49.20;;;4.17;;